Imagination — C6FN2 — position and weather

sailwx.info

Track history (hours):
 
Tides and Currents Weather Stations Pressure Air Temp Water Temp Dewpoint Dewpoint Depression Visibility Wind Speed Wind Dir Waves Ship Positions

Imagination

Operator: Carnival Cruise Lines

Last reported at 2019-Apr-25 10:01 UTC. Time now 2019-Apr-25 10:17 UTC.
Position N 33°28' W 118°06'.

Type: Passenger vessel. MMSI: 309933000.

Date/timePositionNaut miles runAvg speedWind from/ knotsBaromVisibWave heightAir tempDewpointWater temp
2019-Apr-25 10:01N 33°28' W 118°06'3 6.6
2019-Apr-25 09:31N 33°25' W 118°05'4 7.7
2019-Apr-25 09:00N 33°21' W 118°03'4 7.8
2019-Apr-25 08:31N 33°18' W 118°02'4 7.9
2019-Apr-25 08:01N 33°14' W 117°60'4 7.9
2019-Apr-25 07:31N 33°11' W 117°58'4 7.7
2019-Apr-25 07:00N 33°07' W 117°56'4 7.7
2019-Apr-25 06:31N 33°03' W 117°55'3 6.6
2019-Apr-25 06:00N 33°00' W 117°54'3 6.4
2019-Apr-25 05:31N 32°57' W 117°52'3 6.7
2019-Apr-25 05:01N 32°54' W 117°51'3 6.6
2019-Apr-25 04:31N 32°51' W 117°50'3 6.7
2019-Apr-25 04:00N 32°48' W 117°49'3 6.8
2019-Apr-25 03:30N 32°44' W 117°49'4 7.1
2019-Apr-25 03:00N 32°41' W 117°48'4 7.1
2019-Apr-25 02:31N 32°37' W 117°48'4 7.9
2019-Apr-25 02:01N 32°33' W 117°47'4 8.8
2019-Apr-25 01:30N 32°29' W 117°46'4 8.6
2019-Apr-25 01:00N 32°25' W 117°45'3 6.8
2019-Apr-25 00:30N 32°21' W 117°44'3 6.8
2019-Apr-25 00:00N 32°18' W 117°43'3 6.6
2019-Apr-24 23:30N 32°15' W 117°42'3 6.7
2019-Apr-24 23:00N 32°12' W 117°40'4 7.1
2019-Apr-24 22:30N 32°09' W 117°37'4 8.7
2019-Apr-24 22:00N 32°06' W 117°34'4 8.4
2019-Apr-24 21:30N 32°02' W 117°32'4 8.5
2019-Apr-24 21:00N 31°57' W 117°33'4 7.5
2019-Apr-24 20:31N 31°54' W 117°34'4 7.1
2019-Apr-24 20:00N 31°51' W 117°36'4 7.0
2019-Apr-24 19:30N 31°48' W 117°39'3 6.8
2019-Apr-24 19:00N 31°45' W 117°41'5311.4
2019-Apr-24 19:00N 31°42' W 117°36'714.8 250 / 51018.010.8 16.012.716.0
2019-Apr-24 18:30N 31°44' W 117°44'4 7.8
2019-Apr-24 18:00N 31°44' W 117°49'4 7.5
2019-Apr-24 17:30N 31°44' W 117°53'4 9.0
2019-Apr-24 17:00N 31°44' W 117°58'5 9.6
2019-Apr-24 16:31N 31°45' W 118°04'5 9.5
2019-Apr-24 16:01N 31°45' W 118°10'4 7.9
2019-Apr-24 15:31N 31°42' W 118°13'4 8.5
2019-Apr-24 15:01N 31°38' W 118°14'4 8.4
2019-Apr-24 14:30N 31°34' W 118°15'4 8.7
2019-Apr-24 14:01N 31°30' W 118°16'4 8.1
2019-Apr-24 13:30N 31°26' W 118°16'3 6.8
2019-Apr-24 13:01N 31°25' W 118°12'4 7.7
2019-Apr-24 12:30N 31°25' W 118°08'4 7.6
2019-Apr-24 12:00N 31°24' W 118°03'4 7.9
2019-Apr-24 11:30N 31°24' W 117°58'4 7.8
2019-Apr-24 11:00N 31°24' W 117°54'4 7.8
2019-Apr-24 10:31N 31°24' W 117°49'3 6.8
2019-Apr-24 10:00N 31°28' W 117°48'4 7.8
2019-Apr-24 09:30N 31°31' W 117°49'4 7.9
2019-Apr-24 09:00N 31°35' W 117°49'4 7.5
2019-Apr-24 08:31N 31°39' W 117°48'4 8.8
2019-Apr-24 08:00N 31°40' W 117°43'4 8.7
2019-Apr-24 07:30N 31°42' W 117°38'5 8.8
2019-Apr-24 06:55N 31°43' W 117°32'4 8.7
2019-Apr-24 06:30N 31°44' W 117°28'5 9.0
2019-Apr-24 06:00N 31°46' W 117°23'22 1.2
2019-Apr-23 11:32N 31°56' W 117°01'4 9.2
2019-Apr-23 11:09N 31°57' W 117°05'1 8.9
2019-Apr-23 11:00N 31°58' W 117°06'5 8.9
2019-Apr-23 10:29N 31°59' W 117°11'4 9.0
2019-Apr-23 10:00N 32°01' W 117°16'5 9.5
2019-Apr-23 09:30N 32°04' W 117°20'5 9.2
2019-Apr-23 09:00N 32°07' W 117°24'510.0
2019-Apr-23 08:30N 32°11' W 117°29'611.0
2019-Apr-23 08:00N 32°14' W 117°34'510.9
2019-Apr-23 07:30N 32°18' W 117°38'510.4
2019-Apr-23 07:00N 32°22' W 117°42'511.0
2019-Apr-23 06:30N 32°27' W 117°44'510.2
2019-Apr-23 06:00N 32°32' W 117°46'5 9.1
2019-Apr-23 05:30N 32°37' W 117°48'4 8.6
2019-Apr-23 05:00N 32°41' W 117°49'4 8.6
2019-Apr-23 04:30N 32°45' W 117°50'5 9.0
2019-Apr-23 04:00N 32°49' W 117°51'3203.8
2019-Apr-23 04:00N 32°48' W 117°48'714.5 250 / 71018.010.8 17.013.716.0
2019-Apr-23 03:30N 32°54' W 117°52'4 8.9
2019-Apr-23 03:00N 32°58' W 117°55'5 9.2
2019-Apr-23 02:30N 33°02' W 117°58'5 9.6
2019-Apr-23 02:00N 33°05' W 118°02'5 9.9
2019-Apr-23 01:30N 33°09' W 118°05'510.1
2019-Apr-23 01:01N 33°13' W 118°09'5 9.6
2019-Apr-23 00:30N 33°17' W 118°13'5 9.2
2019-Apr-23 00:00N 33°20' W 118°17'2 4.0
2019-Apr-22 23:30N 33°21' W 118°19'0 0.0
2019-Apr-22 22:58N 33°21' W 118°19'0 0.0
2019-Apr-22 22:28N 33°21' W 118°19'0 0.0
2019-Apr-22 21:58N 33°21' W 118°19'0 0.0
2019-Apr-22 21:28N 33°21' W 118°19'0 0.0
2019-Apr-22 21:01N 33°21' W 118°19'0 0.0
2019-Apr-22 20:30N 33°21' W 118°19'0 0.0
2019-Apr-22 19:54N 33°21' W 118°19'0 0.0
2019-Apr-22 19:27N 33°21' W 118°19'0 0.0
2019-Apr-22 19:00N 33°21' W 118°19'0 0.0
2019-Apr-22 18:26N 33°21' W 118°19'0 0.0
2019-Apr-22 17:59N 33°21' W 118°19'0 0.1
2019-Apr-22 17:26N 33°21' W 118°19'0 0.0
2019-Apr-22 16:50N 33°21' W 118°19'0 0.0
2019-Apr-22 16:29N 33°21' W 118°19'0 0.0
2019-Apr-22 15:58N 33°21' W 118°19'0 0.0
2019-Apr-22 15:28N 33°21' W 118°19'0 0.0
2019-Apr-22 14:55N 33°21' W 118°19'0 0.1
2019-Apr-22 14:22N 33°21' W 118°19'0 0.4
2019-Apr-22 14:00N 33°21' W 118°19'3 6.0
2019-Apr-22 13:30N 33°18' W 118°17'4 7.2
2019-Apr-22 13:00N 33°15' W 118°16'4 7.2
2019-Apr-22 12:30N 33°11' W 118°16'4 7.3
2019-Apr-22 12:00N 33°08' W 118°15'3 7.0
2019-Apr-22 11:30N 33°04' W 118°14'4 7.4
2019-Apr-22 11:01N 33°02' W 118°11'4 7.4
2019-Apr-22 10:31N 32°59' W 118°07'4 7.4
2019-Apr-22 10:01N 32°57' W 118°04'4 7.5
2019-Apr-22 09:31N 32°54' W 118°01'4 7.1
2019-Apr-22 09:01N 32°52' W 117°57'3 6.4
2019-Apr-22 08:30N 32°53' W 117°54'3 6.9
2019-Apr-22 08:01N 32°56' W 117°55'3 7.0
2019-Apr-22 07:31N 32°59' W 117°56'4 7.1
2019-Apr-22 07:01N 33°03' W 117°57'4 7.2
2019-Apr-22 06:30N 33°06' W 117°58'4 7.0
2019-Apr-22 06:01N 33°09' W 118°00'3 7.0
2019-Apr-22 05:31N 33°12' W 118°02'4 8.0
2019-Apr-22 05:00N 33°16' W 118°04'4 8.7
2019-Apr-22 04:31N 33°20' W 118°07'5 9.2
2019-Apr-22 04:00N 33°24' W 118°08'5 9.2
2019-Apr-22 03:31N 33°29' W 118°10'5 9.0
2019-Apr-22 03:00N 33°33' W 118°12'5 9.1
2019-Apr-22 02:30N 33°37' W 118°13'4 8.8
2019-Apr-22 02:00N 33°42' W 118°11'3 5.9
2019-Apr-22 01:26N 33°45' W 118°11'0 0.0
2019-Apr-22 00:59N 33°45' W 118°11'0 0.0
2019-Apr-22 00:29N 33°45' W 118°11'0 0.0
2019-Apr-21 23:55N 33°45' W 118°11'0 0.0
2019-Apr-21 23:28N 33°45' W 118°11'0 0.0
2019-Apr-21 22:58N 33°45' W 118°11'0 0.0
2019-Apr-21 22:22N 33°45' W 118°11'0 0.0
2019-Apr-21 22:01N 33°45' W 118°11'0 0.0
2019-Apr-21 21:30N 33°45' W 118°11'0 0.0
2019-Apr-21 21:00N 33°45' W 118°11'0 0.0
2019-Apr-21 20:30N 33°45' W 118°11'0 0.0
2019-Apr-21 20:00N 33°45' W 118°11'0 0.0
2019-Apr-21 19:29N 33°45' W 118°11'0 0.0
2019-Apr-21 18:59N 33°45' W 118°11'0 0.0
2019-Apr-21 18:29N 33°45' W 118°11'0 0.0
2019-Apr-21 17:59N 33°45' W 118°11'0 0.0
2019-Apr-21 17:29N 33°45' W 118°11'0 0.0
2019-Apr-21 16:58N 33°45' W 118°11'0 0.0
2019-Apr-21 16:25N 33°45' W 118°11'0 0.0
2019-Apr-21 15:58N 33°45' W 118°11'0 0.0
2019-Apr-21 15:28N 33°45' W 118°11'0 0.0
2019-Apr-21 15:00N 33°45' W 118°11'0 0.0
2019-Apr-21 14:30N 33°45' W 118°11'0 0.0
2019-Apr-21 14:00N 33°45' W 118°11'0 0.0
2019-Apr-21 13:30N 33°45' W 118°11'0 0.0
2019-Apr-21 13:00N 33°45' W 118°11'0 0.5
2019-Apr-21 12:30N 33°45' W 118°11'3 5.6
2019-Apr-21 12:00N 33°42' W 118°11'510.2
2019-Apr-21 11:30N 33°37' W 118°10'510.9
2019-Apr-21 11:00N 33°32' W 118°08'611.1
2019-Apr-21 10:30N 33°27' W 118°05'5 9.9
2019-Apr-21 10:00N 33°22' W 118°03'611.1
2019-Apr-21 09:30N 33°17' W 118°02'612.3
2019-Apr-21 09:00N 33°10' W 118°01'817.0
2019-Apr-21 08:30N 33°03' W 117°57'917.1
2019-Apr-21 08:00N 32°55' W 117°52'816.5
2019-Apr-21 07:30N 32°47' W 117°48'917.2
2019-Apr-21 07:01N 32°39' W 117°45'917.3
2019-Apr-21 06:31N 32°31' W 117°42'917.1
2019-Apr-21 06:00N 32°23' W 117°37'42 2.2
2019-Apr-20 10:56N 31°53' W 117°02'6 6.8
2019-Apr-20 10:07N 31°53' W 117°09'1 7.2
2019-Apr-20 09:58N 31°53' W 117°10'3 7.2
2019-Apr-20 09:30N 31°53' W 117°14'3 6.9
2019-Apr-20 09:00N 31°53' W 117°18'3 6.9
2019-Apr-20 08:30N 31°53' W 117°22'3 6.9
2019-Apr-20 08:00N 31°52' W 117°26'3 6.9
2019-Apr-20 07:30N 31°52' W 117°30'3 6.9
2019-Apr-20 07:00N 31°51' W 117°34'3 6.2
2019-Apr-20 06:30N 31°50' W 117°37'3 7.0
2019-Apr-20 06:00N 31°47' W 117°40'4 7.8
2019-Apr-20 05:30N 31°43' W 117°40'4 7.6
2019-Apr-20 05:00N 31°39' W 117°40'4 7.4
2019-Apr-20 04:30N 31°36' W 117°40'4 7.6
2019-Apr-20 04:00N 31°32' W 117°40'4268.2
2019-Apr-20 04:00N 31°30' W 117°36'4 8.4 320 / 101018.010.8 17.013.716.0
2019-Apr-20 03:30N 31°28' W 117°40'3 6.3
2019-Apr-20 03:00N 31°27' W 117°43'4 7.2
2019-Apr-20 02:30N 31°26' W 117°48'4 7.3
2019-Apr-20 02:00N 31°26' W 117°52'4 7.2
2019-Apr-20 01:30N 31°26' W 117°56'4 7.3
2019-Apr-20 01:00N 31°25' W 118°00'4 7.4
2019-Apr-20 00:30N 31°24' W 118°04'4 7.1
2019-Apr-20 00:00N 31°23' W 118°08'4 7.3
2019-Apr-19 23:30N 31°22' W 118°13'3 6.8
2019-Apr-19 23:00N 31°26' W 118°14'4 7.1
2019-Apr-19 22:30N 31°29' W 118°14'3 6.9
2019-Apr-19 22:00N 31°33' W 118°14'4 7.1
2019-Apr-19 21:30N 31°36' W 118°13'3 6.9
2019-Apr-19 21:00N 31°40' W 118°13'4 7.0
2019-Apr-19 20:30N 31°43' W 118°12'3 5.2
2019-Apr-19 20:00N 31°45' W 118°10'4 7.2
2019-Apr-19 19:30N 31°43' W 118°06'4 7.3
2019-Apr-19 19:00N 31°42' W 118°02'4 7.1
2019-Apr-19 18:30N 31°41' W 117°58'4 7.3
2019-Apr-19 18:00N 31°42' W 117°54'4 7.5
2019-Apr-19 17:30N 31°43' W 117°49'4 8.1
2019-Apr-19 17:00N 31°46' W 117°46'5300.2
2019-Apr-19 17:00N 31°42' W 117°42'613.3 320 / 191016.010.8 17.013.716.0
2019-Apr-19 16:30N 31°48' W 117°42'4 8.6
2019-Apr-19 16:00N 31°53' W 117°43'4 7.4
2019-Apr-19 15:30N 31°56' W 117°43'4 7.3
2019-Apr-19 15:00N 32°00' W 117°44'4 7.3
2019-Apr-19 14:30N 32°04' W 117°44'4 7.3
2019-Apr-19 14:00N 32°07' W 117°45'3170.3
2019-Apr-19 14:00N 32°06' W 117°42'511.3 020 / 151014.010.8 15.011.613.0
2019-Apr-19 13:30N 32°11' W 117°45'4 7.1
2019-Apr-19 13:00N 32°14' W 117°46'4 7.3
2019-Apr-19 12:30N 32°18' W 117°46'4 7.5
2019-Apr-19 12:00N 32°22' W 117°47'4 7.3
2019-Apr-19 11:30N 32°25' W 117°47'4 7.3
2019-Apr-19 11:00N 32°29' W 117°47'4 8.4
2019-Apr-19 10:30N 32°33' W 117°48'4 8.5
2019-Apr-19 10:00N 32°37' W 117°49'4 7.2
2019-Apr-19 09:30N 32°41' W 117°50'4 7.7
2019-Apr-19 09:00N 32°45' W 117°50'4 8.2
2019-Apr-19 08:30N 32°48' W 117°53'4 7.6
2019-Apr-19 08:00N 32°52' W 117°55'4 7.6
2019-Apr-19 07:30N 32°55' W 117°56'4 7.7
2019-Apr-19 07:00N 32°59' W 117°58'4 7.8
2019-Apr-19 06:30N 33°03' W 117°59'4 7.8
2019-Apr-19 06:00N 33°06' W 118°00'4 8.3
2019-Apr-19 05:30N 33°10' W 118°02'5 9.1
2019-Apr-19 05:00N 33°14' W 118°04'5 9.7
2019-Apr-19 04:30N 33°19' W 118°06'5 9.8
2019-Apr-19 04:00N 33°24' W 118°08'5 9.6
2019-Apr-19 03:30N 33°28' W 118°10'5 9.8
2019-Apr-19 03:01N 33°33' W 118°12'5 9.5
2019-Apr-19 02:30N 33°37' W 118°13'4 8.8
2019-Apr-19 02:00N 33°42' W 118°11'3 6.6
2019-Apr-19 01:29N 33°45' W 118°11'0 0.0
2019-Apr-19 00:59N 33°45' W 118°11'0 0.0
2019-Apr-19 00:29N 33°45' W 118°11'0 0.0
2019-Apr-18 23:56N 33°45' W 118°11'0 0.0
2019-Apr-18 23:29N 33°45' W 118°11'0 0.0
2019-Apr-18 22:55N 33°45' W 118°11'0 0.0
2019-Apr-18 22:28N 33°45' W 118°11'0 0.0
2019-Apr-18 21:58N 33°45' W 118°11'0 0.0
2019-Apr-18 21:28N 33°45' W 118°11'0 0.0
2019-Apr-18 20:58N 33°45' W 118°11'0 0.0
2019-Apr-18 20:30N 33°45' W 118°11'0 0.0
2019-Apr-18 20:00N 33°45' W 118°11'0 0.0
2019-Apr-18 19:27N 33°45' W 118°11'0 0.0
2019-Apr-18 19:00N 33°45' W 118°11'0 0.0
2019-Apr-18 18:29N 33°45' W 118°11'0 0.0
2019-Apr-18 17:59N 33°45' W 118°11'0 0.0
2019-Apr-18 17:29N 33°45' W 118°11'0 0.0
2019-Apr-18 16:59N 33°45' W 118°11'0 0.0
2019-Apr-18 16:29N 33°45' W 118°11'0 0.0
2019-Apr-18 15:58N 33°45' W 118°11'0 0.0
2019-Apr-18 15:25N 33°45' W 118°11'0 0.0
2019-Apr-18 14:58N 33°45' W 118°11'0 0.0
2019-Apr-18 14:28N 33°45' W 118°11'0 0.0
2019-Apr-18 14:00N 33°45' W 118°11'0 0.0
2019-Apr-18 13:30N 33°45' W 118°11'0 0.0
2019-Apr-18 13:00N 33°45' W 118°11'0 0.6
2019-Apr-18 12:30N 33°45' W 118°11'4 7.4
2019-Apr-18 12:00N 33°41' W 118°11'3 5.9
2019-Apr-18 11:30N 33°38' W 118°10'3 6.7
2019-Apr-18 11:00N 33°35' W 118°09'3 6.5
2019-Apr-18 10:30N 33°32' W 118°08'3 6.2
2019-Apr-18 10:00N 33°29' W 118°07'3 5.3
2019-Apr-18 09:30N 33°26' W 118°05'3 6.5
2019-Apr-18 09:00N 33°23' W 118°04'3 6.5
2019-Apr-18 08:30N 33°20' W 118°03'3 6.5
2019-Apr-18 08:00N 33°17' W 118°01'3 6.5
2019-Apr-18 07:30N 33°14' W 117°60'3 6.7
2019-Apr-18 07:01N 33°11' W 117°58'4 7.3
2019-Apr-18 06:30N 33°08' W 117°57'4 7.1
2019-Apr-18 06:00N 33°05' W 117°55'4 8.5
2019-Apr-18 05:30N 33°01' W 117°53'5 9.1
2019-Apr-18 05:00N 32°56' W 117°51'4 8.7
2019-Apr-18 04:30N 32°52' W 117°50'4 8.6
2019-Apr-18 04:00N 32°48' W 117°49'4 7.7
2019-Apr-18 03:30N 32°44' W 117°49'4 7.4
2019-Apr-18 03:00N 32°40' W 117°48'4 7.3
2019-Apr-18 02:30N 32°37' W 117°48'4 7.4
2019-Apr-18 02:00N 32°33' W 117°47'4 7.4
2019-Apr-18 01:30N 32°30' W 117°46'4 7.4
2019-Apr-18 01:00N 32°26' W 117°45'4 7.3
2019-Apr-18 00:30N 32°22' W 117°44'4 7.5
2019-Apr-18 00:00N 32°19' W 117°43'4 7.1
2019-Apr-17 23:30N 32°15' W 117°42'4 7.2
2019-Apr-17 23:00N 32°12' W 117°39'4 7.3
2019-Apr-17 22:30N 32°09' W 117°37'4 7.3
2019-Apr-17 21:59N 32°06' W 117°35'11 7.5
2019-Apr-17 20:31N 31°56' W 117°29'0 8.8
2019-Apr-17 20:30N 31°56' W 117°29'4 8.7
2019-Apr-17 19:59N 31°52' W 117°32'4 8.1
2019-Apr-17 19:29N 31°49' W 117°35'11 8.4
2019-Apr-17 18:08N 31°41' W 117°44'3 7.6
2019-Apr-17 17:41N 31°39' W 117°48'1 7.8
2019-Apr-17 17:30N 31°39' W 117°50'4 8.3
2019-Apr-17 17:00N 31°40' W 117°54'4 8.3
2019-Apr-17 16:30N 31°40' W 117°59'4 8.2
2019-Apr-17 16:00N 31°41' W 118°04'6400.2
2019-Apr-17 16:00N 31°36' W 118°00'918.6 300 / 51016.010.8 16.012.716.0
2019-Apr-17 15:31N 31°41' W 118°09'5 7.9
2019-Apr-17 14:56N 31°39' W 118°14'3 8.0
2019-Apr-17 14:30N 31°36' W 118°15'4 8.1
2019-Apr-17 14:00N 31°32' W 118°17'8 5.8
2019-Apr-17 12:40N 31°27' W 118°09'1 7.9
2019-Apr-17 12:29N 31°27' W 118°08'66 7.8
2019-Apr-17 04:00N 31°48' W 116°54'24 1.3 320 / 241016.0 16.012.716.0
2019-Apr-16 09:46N 32°01' W 117°17'3 9.5
2019-Apr-16 09:27N 32°03' W 117°20'4 9.5
2019-Apr-16 09:00N 32°06' W 117°23'5 9.2
2019-Apr-16 08:29N 32°10' W 117°27'4 9.2
2019-Apr-16 08:00N 32°13' W 117°31'5 9.2
2019-Apr-16 07:31N 32°16' W 117°35'5 9.1
2019-Apr-16 07:00N 32°19' W 117°39'4 8.7
2019-Apr-16 06:30N 32°23' W 117°42'5 9.1
2019-Apr-16 06:00N 32°27' W 117°43'510.3
2019-Apr-16 05:30N 32°32' W 117°46'5 9.8
2019-Apr-16 05:00N 32°36' W 117°48'8478.3
2019-Apr-16 05:00N 32°30' W 117°42'1225.4 330 / 91016.0 17.013.716.0
2019-Apr-16 04:31N 32°41' W 117°48'510.3
2019-Apr-16 04:00N 32°46' W 117°48'510.2
2019-Apr-16 03:30N 32°51' W 117°48'510.2
2019-Apr-16 03:00N 32°56' W 117°52'5 9.8
2019-Apr-16 02:30N 32°59' W 117°55'510.0
2019-Apr-16 02:00N 33°03' W 117°60'510.4
2019-Apr-16 01:30N 33°07' W 118°03'510.3
2019-Apr-16 01:00N 33°11' W 118°07'510.3
2019-Apr-16 00:30N 33°15' W 118°11'510.2
2019-Apr-16 00:00N 33°19' W 118°16'4 7.5
2019-Apr-15 23:30N 33°21' W 118°19'0 0.2
2019-Apr-15 22:56N 33°21' W 118°19'0 0.0
2019-Apr-15 22:28N 33°21' W 118°19'0 0.0
2019-Apr-15 21:58N 33°21' W 118°19'0 0.1
2019-Apr-15 21:28N 33°21' W 118°19'0 0.1
2019-Apr-15 20:55N 33°21' W 118°19'0 0.0
2019-Apr-15 20:28N 33°21' W 118°19'0 0.1
2019-Apr-15 19:57N 33°21' W 118°19'0 0.0
2019-Apr-15 19:30N 33°21' W 118°19'0 0.0
2019-Apr-15 19:00N 33°21' W 118°19'0 0.1
2019-Apr-15 18:30N 33°21' W 118°19'0 0.0
2019-Apr-15 17:59N 33°21' W 118°19'0 0.0
2019-Apr-15 17:29N 33°21' W 118°19'0 0.0
2019-Apr-15 16:59N 33°21' W 118°19'0 0.0
2019-Apr-15 16:29N 33°21' W 118°19'0 0.0
2019-Apr-15 15:56N 33°21' W 118°19'0 0.0
2019-Apr-15 15:28N 33°21' W 118°19'0 0.0
2019-Apr-15 14:58N 33°21' W 118°19'0 0.1
2019-Apr-15 14:28N 33°21' W 118°19'0 0.2
2019-Apr-15 14:00N 33°21' W 118°19'3 5.9
2019-Apr-15 13:31N 33°18' W 118°17'4 7.1
2019-Apr-15 13:00N 33°15' W 118°16'4 7.1
2019-Apr-15 12:31N 33°11' W 118°16'4 7.3
2019-Apr-15 12:01N 33°08' W 118°15'4 7.2
2019-Apr-15 11:30N 33°04' W 118°14'4 7.3
2019-Apr-15 11:01N 33°02' W 118°11'4 7.3
2019-Apr-15 10:30N 32°59' W 118°07'  
Track history (hours):
 
Tides and Currents Weather Stations Pressure Air Temp Water Temp Dewpoint Dewpoint Depression Visibility Wind Speed Wind Dir Waves Ship Positions

Imagination

Operator: Carnival Cruise Lines

Last reported at 2019-Apr-25 10:01 UTC. Time now 2019-Apr-25 10:17 UTC.
Position N 33°28' W 118°06'.

Type: Passenger vessel. MMSI: 309933000.

Date/timePositionNaut miles runAvg speedWind from/ knotsBaromVisibWave heightAir tempDewpointWater temp
2019-Apr-25 10:01N 33°28' W 118°06'3 6.6
2019-Apr-25 09:31N 33°25' W 118°05'4 7.7
2019-Apr-25 09:00N 33°21' W 118°03'4 7.8
2019-Apr-25 08:31N 33°18' W 118°02'4 7.9
2019-Apr-25 08:01N 33°14' W 117°60'4 7.9
2019-Apr-25 07:31N 33°11' W 117°58'4 7.7
2019-Apr-25 07:00N 33°07' W 117°56'4 7.7
2019-Apr-25 06:31N 33°03' W 117°55'3 6.6
2019-Apr-25 06:00N 33°00' W 117°54'3 6.4
2019-Apr-25 05:31N 32°57' W 117°52'3 6.7
2019-Apr-25 05:01N 32°54' W 117°51'3 6.6
2019-Apr-25 04:31N 32°51' W 117°50'3 6.7
2019-Apr-25 04:00N 32°48' W 117°49'3 6.8
2019-Apr-25 03:30N 32°44' W 117°49'4 7.1
2019-Apr-25 03:00N 32°41' W 117°48'4 7.1
2019-Apr-25 02:31N 32°37' W 117°48'4 7.9
2019-Apr-25 02:01N 32°33' W 117°47'4 8.8
2019-Apr-25 01:30N 32°29' W 117°46'4 8.6
2019-Apr-25 01:00N 32°25' W 117°45'3 6.8
2019-Apr-25 00:30N 32°21' W 117°44'3 6.8
2019-Apr-25 00:00N 32°18' W 117°43'3 6.6
2019-Apr-24 23:30N 32°15' W 117°42'3 6.7
2019-Apr-24 23:00N 32°12' W 117°40'4 7.1
2019-Apr-24 22:30N 32°09' W 117°37'4 8.7
2019-Apr-24 22:00N 32°06' W 117°34'4 8.4
2019-Apr-24 21:30N 32°02' W 117°32'4 8.5
2019-Apr-24 21:00N 31°57' W 117°33'4 7.5
2019-Apr-24 20:31N 31°54' W 117°34'4 7.1
2019-Apr-24 20:00N 31°51' W 117°36'4 7.0
2019-Apr-24 19:30N 31°48' W 117°39'3 6.8
2019-Apr-24 19:00N 31°45' W 117°41'5311.4
2019-Apr-24 19:00N 31°42' W 117°36'714.8 250 / 51018.010.8 16.012.716.0
2019-Apr-24 18:30N 31°44' W 117°44'4 7.8
2019-Apr-24 18:00N 31°44' W 117°49'4 7.5
2019-Apr-24 17:30N 31°44' W 117°53'4 9.0
2019-Apr-24 17:00N 31°44' W 117°58'5 9.6
2019-Apr-24 16:31N 31°45' W 118°04'5 9.5
2019-Apr-24 16:01N 31°45' W 118°10'4 7.9
2019-Apr-24 15:31N 31°42' W 118°13'4 8.5
2019-Apr-24 15:01N 31°38' W 118°14'4 8.4
2019-Apr-24 14:30N 31°34' W 118°15'4 8.7
2019-Apr-24 14:01N 31°30' W 118°16'4 8.1
2019-Apr-24 13:30N 31°26' W 118°16'3 6.8
2019-Apr-24 13:01N 31°25' W 118°12'4 7.7
2019-Apr-24 12:30N 31°25' W 118°08'4 7.6
2019-Apr-24 12:00N 31°24' W 118°03'4 7.9
2019-Apr-24 11:30N 31°24' W 117°58'4 7.8
2019-Apr-24 11:00N 31°24' W 117°54'4 7.8
2019-Apr-24 10:31N 31°24' W 117°49'3 6.8
2019-Apr-24 10:00N 31°28' W 117°48'4 7.8
2019-Apr-24 09:30N 31°31' W 117°49'4 7.9
2019-Apr-24 09:00N 31°35' W 117°49'4 7.5
2019-Apr-24 08:31N 31°39' W 117°48'4 8.8
2019-Apr-24 08:00N 31°40' W 117°43'4 8.7
2019-Apr-24 07:30N 31°42' W 117°38'5 8.8
2019-Apr-24 06:55N 31°43' W 117°32'4 8.7
2019-Apr-24 06:30N 31°44' W 117°28'5 9.0
2019-Apr-24 06:00N 31°46' W 117°23'22 1.2
2019-Apr-23 11:32N 31°56' W 117°01'4 9.2
2019-Apr-23 11:09N 31°57' W 117°05'1 8.9
2019-Apr-23 11:00N 31°58' W 117°06'5 8.9
2019-Apr-23 10:29N 31°59' W 117°11'4 9.0
2019-Apr-23 10:00N 32°01' W 117°16'5 9.5
2019-Apr-23 09:30N 32°04' W 117°20'5 9.2
2019-Apr-23 09:00N 32°07' W 117°24'510.0
2019-Apr-23 08:30N 32°11' W 117°29'611.0
2019-Apr-23 08:00N 32°14' W 117°34'510.9
2019-Apr-23 07:30N 32°18' W 117°38'510.4
2019-Apr-23 07:00N 32°22' W 117°42'511.0
2019-Apr-23 06:30N 32°27' W 117°44'510.2
2019-Apr-23 06:00N 32°32' W 117°46'5 9.1
2019-Apr-23 05:30N 32°37' W 117°48'4 8.6
2019-Apr-23 05:00N 32°41' W 117°49'4 8.6
2019-Apr-23 04:30N 32°45' W 117°50'5 9.0
2019-Apr-23 04:00N 32°49' W 117°51'3203.8
2019-Apr-23 04:00N 32°48' W 117°48'714.5 250 / 71018.010.8 17.013.716.0
2019-Apr-23 03:30N 32°54' W 117°52'4 8.9
2019-Apr-23 03:00N 32°58' W 117°55'5 9.2
2019-Apr-23 02:30N 33°02' W 117°58'5 9.6
2019-Apr-23 02:00N 33°05' W 118°02'5 9.9
2019-Apr-23 01:30N 33°09' W 118°05'510.1
2019-Apr-23 01:01N 33°13' W 118°09'5 9.6
2019-Apr-23 00:30N 33°17' W 118°13'5 9.2
2019-Apr-23 00:00N 33°20' W 118°17'2 4.0
2019-Apr-22 23:30N 33°21' W 118°19'0 0.0
2019-Apr-22 22:58N 33°21' W 118°19'0 0.0
2019-Apr-22 22:28N 33°21' W 118°19'0 0.0
2019-Apr-22 21:58N 33°21' W 118°19'0 0.0
2019-Apr-22 21:28N 33°21' W 118°19'0 0.0
2019-Apr-22 21:01N 33°21' W 118°19'0 0.0
2019-Apr-22 20:30N 33°21' W 118°19'0 0.0
2019-Apr-22 19:54N 33°21' W 118°19'0 0.0
2019-Apr-22 19:27N 33°21' W 118°19'0 0.0
2019-Apr-22 19:00N 33°21' W 118°19'0 0.0
2019-Apr-22 18:26N 33°21' W 118°19'0 0.0
2019-Apr-22 17:59N 33°21' W 118°19'0 0.1
2019-Apr-22 17:26N 33°21' W 118°19'0 0.0
2019-Apr-22 16:50N 33°21' W 118°19'0 0.0
2019-Apr-22 16:29N 33°21' W 118°19'0 0.0
2019-Apr-22 15:58N 33°21' W 118°19'0 0.0
2019-Apr-22 15:28N 33°21' W 118°19'0 0.0
2019-Apr-22 14:55N 33°21' W 118°19'0 0.1
2019-Apr-22 14:22N 33°21' W 118°19'0 0.4
2019-Apr-22 14:00N 33°21' W 118°19'3 6.0
2019-Apr-22 13:30N 33°18' W 118°17'4 7.2
2019-Apr-22 13:00N 33°15' W 118°16'4 7.2
2019-Apr-22 12:30N 33°11' W 118°16'4 7.3
2019-Apr-22 12:00N 33°08' W 118°15'3 7.0
2019-Apr-22 11:30N 33°04' W 118°14'4 7.4
2019-Apr-22 11:01N 33°02' W 118°11'4 7.4
2019-Apr-22 10:31N 32°59' W 118°07'4 7.4
2019-Apr-22 10:01N 32°57' W 118°04'4 7.5
2019-Apr-22 09:31N 32°54' W 118°01'4 7.1
2019-Apr-22 09:01N 32°52' W 117°57'3 6.4
2019-Apr-22 08:30N 32°53' W 117°54'3 6.9
2019-Apr-22 08:01N 32°56' W 117°55'3 7.0
2019-Apr-22 07:31N 32°59' W 117°56'4 7.1
2019-Apr-22 07:01N 33°03' W 117°57'4 7.2
2019-Apr-22 06:30N 33°06' W 117°58'4 7.0
2019-Apr-22 06:01N 33°09' W 118°00'3 7.0
2019-Apr-22 05:31N 33°12' W 118°02'4 8.0
2019-Apr-22 05:00N 33°16' W 118°04'4 8.7
2019-Apr-22 04:31N 33°20' W 118°07'5 9.2
2019-Apr-22 04:00N 33°24' W 118°08'5 9.2
2019-Apr-22 03:31N 33°29' W 118°10'5 9.0
2019-Apr-22 03:00N 33°33' W 118°12'5 9.1
2019-Apr-22 02:30N 33°37' W 118°13'4 8.8
2019-Apr-22 02:00N 33°42' W 118°11'3 5.9
2019-Apr-22 01:26N 33°45' W 118°11'0 0.0
2019-Apr-22 00:59N 33°45' W 118°11'0 0.0
2019-Apr-22 00:29N 33°45' W 118°11'0 0.0
2019-Apr-21 23:55N 33°45' W 118°11'0 0.0
2019-Apr-21 23:28N 33°45' W 118°11'0 0.0
2019-Apr-21 22:58N 33°45' W 118°11'0 0.0
2019-Apr-21 22:22N 33°45' W 118°11'0 0.0
2019-Apr-21 22:01N 33°45' W 118°11'0 0.0
2019-Apr-21 21:30N 33°45' W 118°11'0 0.0
2019-Apr-21 21:00N 33°45' W 118°11'0 0.0
2019-Apr-21 20:30N 33°45' W 118°11'0 0.0
2019-Apr-21 20:00N 33°45' W 118°11'0 0.0
2019-Apr-21 19:29N 33°45' W 118°11'0 0.0
2019-Apr-21 18:59N 33°45' W 118°11'0 0.0
2019-Apr-21 18:29N 33°45' W 118°11'0 0.0
2019-Apr-21 17:59N 33°45' W 118°11'0 0.0
2019-Apr-21 17:29N 33°45' W 118°11'0 0.0
2019-Apr-21 16:58N 33°45' W 118°11'0 0.0
2019-Apr-21 16:25N 33°45' W 118°11'0 0.0
2019-Apr-21 15:58N 33°45' W 118°11'0 0.0
2019-Apr-21 15:28N 33°45' W 118°11'0 0.0
2019-Apr-21 15:00N 33°45' W 118°11'0 0.0
2019-Apr-21 14:30N 33°45' W 118°11'0 0.0
2019-Apr-21 14:00N 33°45' W 118°11'0 0.0
2019-Apr-21 13:30N 33°45' W 118°11'0 0.0
2019-Apr-21 13:00N 33°45' W 118°11'0 0.5
2019-Apr-21 12:30N 33°45' W 118°11'3 5.6
2019-Apr-21 12:00N 33°42' W 118°11'510.2
2019-Apr-21 11:30N 33°37' W 118°10'510.9
2019-Apr-21 11:00N 33°32' W 118°08'611.1
2019-Apr-21 10:30N 33°27' W 118°05'5 9.9
2019-Apr-21 10:00N 33°22' W 118°03'611.1
2019-Apr-21 09:30N 33°17' W 118°02'612.3
2019-Apr-21 09:00N 33°10' W 118°01'817.0
2019-Apr-21 08:30N 33°03' W 117°57'917.1
2019-Apr-21 08:00N 32°55' W 117°52'816.5
2019-Apr-21 07:30N 32°47' W 117°48'917.2
2019-Apr-21 07:01N 32°39' W 117°45'917.3
2019-Apr-21 06:31N 32°31' W 117°42'917.1
2019-Apr-21 06:00N 32°23' W 117°37'42 2.2
2019-Apr-20 10:56N 31°53' W 117°02'6 6.8
2019-Apr-20 10:07N 31°53' W 117°09'1 7.2
2019-Apr-20 09:58N 31°53' W 117°10'3 7.2
2019-Apr-20 09:30N 31°53' W 117°14'3 6.9
2019-Apr-20 09:00N 31°53' W 117°18'3 6.9
2019-Apr-20 08:30N 31°53' W 117°22'3 6.9
2019-Apr-20 08:00N 31°52' W 117°26'3 6.9
2019-Apr-20 07:30N 31°52' W 117°30'3 6.9
2019-Apr-20 07:00N 31°51' W 117°34'3 6.2
2019-Apr-20 06:30N 31°50' W 117°37'3 7.0
2019-Apr-20 06:00N 31°47' W 117°40'4 7.8
2019-Apr-20 05:30N 31°43' W 117°40'4 7.6
2019-Apr-20 05:00N 31°39' W 117°40'4 7.4
2019-Apr-20 04:30N 31°36' W 117°40'4 7.6
2019-Apr-20 04:00N 31°32' W 117°40'4268.2
2019-Apr-20 04:00N 31°30' W 117°36'4 8.4 320 / 101018.010.8 17.013.716.0
2019-Apr-20 03:30N 31°28' W 117°40'3 6.3
2019-Apr-20 03:00N 31°27' W 117°43'4 7.2
2019-Apr-20 02:30N 31°26' W 117°48'4 7.3
2019-Apr-20 02:00N 31°26' W 117°52'4 7.2
2019-Apr-20 01:30N 31°26' W 117°56'4 7.3
2019-Apr-20 01:00N 31°25' W 118°00'4 7.4
2019-Apr-20 00:30N 31°24' W 118°04'4 7.1
2019-Apr-20 00:00N 31°23' W 118°08'4 7.3
2019-Apr-19 23:30N 31°22' W 118°13'3 6.8
2019-Apr-19 23:00N 31°26' W 118°14'4 7.1
2019-Apr-19 22:30N 31°29' W 118°14'3 6.9
2019-Apr-19 22:00N 31°33' W 118°14'4 7.1
2019-Apr-19 21:30N 31°36' W 118°13'3 6.9
2019-Apr-19 21:00N 31°40' W 118°13'4 7.0
2019-Apr-19 20:30N 31°43' W 118°12'3 5.2
2019-Apr-19 20:00N 31°45' W 118°10'4 7.2
2019-Apr-19 19:30N 31°43' W 118°06'4 7.3
2019-Apr-19 19:00N 31°42' W 118°02'4 7.1
2019-Apr-19 18:30N 31°41' W 117°58'4 7.3
2019-Apr-19 18:00N 31°42' W 117°54'4 7.5
2019-Apr-19 17:30N 31°43' W 117°49'4 8.1
2019-Apr-19 17:00N 31°46' W 117°46'5300.2
2019-Apr-19 17:00N 31°42' W 117°42'613.3 320 / 191016.010.8 17.013.716.0
2019-Apr-19 16:30N 31°48' W 117°42'4 8.6
2019-Apr-19 16:00N 31°53' W 117°43'4 7.4
2019-Apr-19 15:30N 31°56' W 117°43'4 7.3
2019-Apr-19 15:00N 32°00' W 117°44'4 7.3
2019-Apr-19 14:30N 32°04' W 117°44'4 7.3
2019-Apr-19 14:00N 32°07' W 117°45'3170.3
2019-Apr-19 14:00N 32°06' W 117°42'511.3 020 / 151014.010.8 15.011.613.0
2019-Apr-19 13:30N 32°11' W 117°45'4 7.1
2019-Apr-19 13:00N 32°14' W 117°46'4 7.3
2019-Apr-19 12:30N 32°18' W 117°46'4 7.5
2019-Apr-19 12:00N 32°22' W 117°47'4 7.3
2019-Apr-19 11:30N 32°25' W 117°47'4 7.3
2019-Apr-19 11:00N 32°29' W 117°47'4 8.4
2019-Apr-19 10:30N 32°33' W 117°48'4 8.5
2019-Apr-19 10:00N 32°37' W 117°49'4 7.2
2019-Apr-19 09:30N 32°41' W 117°50'4 7.7
2019-Apr-19 09:00N 32°45' W 117°50'4 8.2
2019-Apr-19 08:30N 32°48' W 117°53'4 7.6
2019-Apr-19 08:00N 32°52' W 117°55'4 7.6
2019-Apr-19 07:30N 32°55' W 117°56'4 7.7
2019-Apr-19 07:00N 32°59' W 117°58'4 7.8
2019-Apr-19 06:30N 33°03' W 117°59'4 7.8
2019-Apr-19 06:00N 33°06' W 118°00'4 8.3
2019-Apr-19 05:30N 33°10' W 118°02'5 9.1
2019-Apr-19 05:00N 33°14' W 118°04'5 9.7
2019-Apr-19 04:30N 33°19' W 118°06'5 9.8
2019-Apr-19 04:00N 33°24' W 118°08'5 9.6
2019-Apr-19 03:30N 33°28' W 118°10'5 9.8
2019-Apr-19 03:01N 33°33' W 118°12'5 9.5
2019-Apr-19 02:30N 33°37' W 118°13'4 8.8
2019-Apr-19 02:00N 33°42' W 118°11'3 6.6
2019-Apr-19 01:29N 33°45' W 118°11'0 0.0
2019-Apr-19 00:59N 33°45' W 118°11'0 0.0
2019-Apr-19 00:29N 33°45' W 118°11'0 0.0
2019-Apr-18 23:56N 33°45' W 118°11'0 0.0
2019-Apr-18 23:29N 33°45' W 118°11'0 0.0
2019-Apr-18 22:55N 33°45' W 118°11'0 0.0
2019-Apr-18 22:28N 33°45' W 118°11'0 0.0
2019-Apr-18 21:58N 33°45' W 118°11'0 0.0
2019-Apr-18 21:28N 33°45' W 118°11'0 0.0
2019-Apr-18 20:58N 33°45' W 118°11'0 0.0
2019-Apr-18 20:30N 33°45' W 118°11'0 0.0
2019-Apr-18 20:00N 33°45' W 118°11'0 0.0
2019-Apr-18 19:27N 33°45' W 118°11'0 0.0
2019-Apr-18 19:00N 33°45' W 118°11'0 0.0
2019-Apr-18 18:29N 33°45' W 118°11'0 0.0
2019-Apr-18 17:59N 33°45' W 118°11'0 0.0
2019-Apr-18 17:29N 33°45' W 118°11'0 0.0
2019-Apr-18 16:59N 33°45' W 118°11'0 0.0
2019-Apr-18 16:29N 33°45' W 118°11'0 0.0
2019-Apr-18 15:58N 33°45' W 118°11'0 0.0
2019-Apr-18 15:25N 33°45' W 118°11'0 0.0
2019-Apr-18 14:58N 33°45' W 118°11'0 0.0
2019-Apr-18 14:28N 33°45' W 118°11'0 0.0
2019-Apr-18 14:00N 33°45' W 118°11'0 0.0
2019-Apr-18 13:30N 33°45' W 118°11'0 0.0
2019-Apr-18 13:00N 33°45' W 118°11'0 0.6
2019-Apr-18 12:30N 33°45' W 118°11'4 7.4
2019-Apr-18 12:00N 33°41' W 118°11'3 5.9
2019-Apr-18 11:30N 33°38' W 118°10'3 6.7
2019-Apr-18 11:00N 33°35' W 118°09'3 6.5
2019-Apr-18 10:30N 33°32' W 118°08'3 6.2
2019-Apr-18 10:00N 33°29' W 118°07'3 5.3
2019-Apr-18 09:30N 33°26' W 118°05'3 6.5
2019-Apr-18 09:00N 33°23' W 118°04'3 6.5
2019-Apr-18 08:30N 33°20' W 118°03'3 6.5
2019-Apr-18 08:00N 33°17' W 118°01'3 6.5
2019-Apr-18 07:30N 33°14' W 117°60'3 6.7
2019-Apr-18 07:01N 33°11' W 117°58'4 7.3
2019-Apr-18 06:30N 33°08' W 117°57'4 7.1
2019-Apr-18 06:00N 33°05' W 117°55'4 8.5
2019-Apr-18 05:30N 33°01' W 117°53'5 9.1
2019-Apr-18 05:00N 32°56' W 117°51'4 8.7
2019-Apr-18 04:30N 32°52' W 117°50'4 8.6
2019-Apr-18 04:00N 32°48' W 117°49'4 7.7
2019-Apr-18 03:30N 32°44' W 117°49'4 7.4
2019-Apr-18 03:00N 32°40' W 117°48'4 7.3
2019-Apr-18 02:30N 32°37' W 117°48'4 7.4
2019-Apr-18 02:00N 32°33' W 117°47'4 7.4
2019-Apr-18 01:30N 32°30' W 117°46'4 7.4
2019-Apr-18 01:00N 32°26' W 117°45'4 7.3
2019-Apr-18 00:30N 32°22' W 117°44'4 7.5
2019-Apr-18 00:00N 32°19' W 117°43'4 7.1
2019-Apr-17 23:30N 32°15' W 117°42'4 7.2
2019-Apr-17 23:00N 32°12' W 117°39'4 7.3
2019-Apr-17 22:30N 32°09' W 117°37'4 7.3
2019-Apr-17 21:59N 32°06' W 117°35'11 7.5
2019-Apr-17 20:31N 31°56' W 117°29'0 8.8
2019-Apr-17 20:30N 31°56' W 117°29'4 8.7
2019-Apr-17 19:59N 31°52' W 117°32'4 8.1
2019-Apr-17 19:29N 31°49' W 117°35'11 8.4
2019-Apr-17 18:08N 31°41' W 117°44'3 7.6
2019-Apr-17 17:41N 31°39' W 117°48'1 7.8
2019-Apr-17 17:30N 31°39' W 117°50'4 8.3
2019-Apr-17 17:00N 31°40' W 117°54'4 8.3
2019-Apr-17 16:30N 31°40' W 117°59'4 8.2
2019-Apr-17 16:00N 31°41' W 118°04'6400.2
2019-Apr-17 16:00N 31°36' W 118°00'918.6 300 / 51016.010.8 16.012.716.0
2019-Apr-17 15:31N 31°41' W 118°09'5 7.9
2019-Apr-17 14:56N 31°39' W 118°14'3 8.0
2019-Apr-17 14:30N 31°36' W 118°15'4 8.1
2019-Apr-17 14:00N 31°32' W 118°17'8 5.8
2019-Apr-17 12:40N 31°27' W 118°09'1 7.9
2019-Apr-17 12:29N 31°27' W 118°08'66 7.8
2019-Apr-17 04:00N 31°48' W 116°54'24 1.3 320 / 241016.0 16.012.716.0
2019-Apr-16 09:46N 32°01' W 117°17'3 9.5
2019-Apr-16 09:27N 32°03' W 117°20'4 9.5
2019-Apr-16 09:00N 32°06' W 117°23'5 9.2
2019-Apr-16 08:29N 32°10' W 117°27'4 9.2
2019-Apr-16 08:00N 32°13' W 117°31'5 9.2
2019-Apr-16 07:31N 32°16' W 117°35'5 9.1
2019-Apr-16 07:00N 32°19' W 117°39'4 8.7
2019-Apr-16 06:30N 32°23' W 117°42'5 9.1
2019-Apr-16 06:00N 32°27' W 117°43'510.3
2019-Apr-16 05:30N 32°32' W 117°46'5 9.8
2019-Apr-16 05:00N 32°36' W 117°48'8478.3
2019-Apr-16 05:00N 32°30' W 117°42'1225.4 330 / 91016.0 17.013.716.0
2019-Apr-16 04:31N 32°41' W 117°48'510.3
2019-Apr-16 04:00N 32°46' W 117°48'510.2
2019-Apr-16 03:30N 32°51' W 117°48'510.2
2019-Apr-16 03:00N 32°56' W 117°52'5 9.8
2019-Apr-16 02:30N 32°59' W 117°55'510.0
2019-Apr-16 02:00N 33°03' W 117°60'510.4
2019-Apr-16 01:30N 33°07' W 118°03'510.3
2019-Apr-16 01:00N 33°11' W 118°07'510.3
2019-Apr-16 00:30N 33°15' W 118°11'510.2
2019-Apr-16 00:00N 33°19' W 118°16'4 7.5
2019-Apr-15 23:30N 33°21' W 118°19'0 0.2
2019-Apr-15 22:56N 33°21' W 118°19'0 0.0
2019-Apr-15 22:28N 33°21' W 118°19'0 0.0
2019-Apr-15 21:58N 33°21' W 118°19'0 0.1
2019-Apr-15 21:28N 33°21' W 118°19'0 0.1
2019-Apr-15 20:55N 33°21' W 118°19'0 0.0
2019-Apr-15 20:28N 33°21' W 118°19'0 0.1
2019-Apr-15 19:57N 33°21' W 118°19'0 0.0
2019-Apr-15 19:30N 33°21' W 118°19'0 0.0
2019-Apr-15 19:00N 33°21' W 118°19'0 0.1
2019-Apr-15 18:30N 33°21' W 118°19'0 0.0
2019-Apr-15 17:59N 33°21' W 118°19'0 0.0
2019-Apr-15 17:29N 33°21' W 118°19'0 0.0
2019-Apr-15 16:59N 33°21' W 118°19'0 0.0
2019-Apr-15 16:29N 33°21' W 118°19'0 0.0
2019-Apr-15 15:56N 33°21' W 118°19'0 0.0
2019-Apr-15 15:28N 33°21' W 118°19'0 0.0
2019-Apr-15 14:58N 33°21' W 118°19'0 0.1
2019-Apr-15 14:28N 33°21' W 118°19'0 0.2
2019-Apr-15 14:00N 33°21' W 118°19'3 5.9
2019-Apr-15 13:31N 33°18' W 118°17'4 7.1
2019-Apr-15 13:00N 33°15' W 118°16'4 7.1
2019-Apr-15 12:31N 33°11' W 118°16'4 7.3
2019-Apr-15 12:01N 33°08' W 118°15'4 7.2
2019-Apr-15 11:30N 33°04' W 118°14'4 7.3
2019-Apr-15 11:01N 33°02' W 118°11'4 7.3
2019-Apr-15 10:30N 32°59' W 118°07'  

Dump ship's entire track history